Time;durP1;ratioP1;P1;durP2;ratioP2;P2;SDS_P1;SDS_P2;PMS_P1;PMS_P2;Temp;Humidity;BMP_temperature;BMP_pressure;BME280_temperature;BME280_humidity;BME280_pressure;Samples;Min_cycle;Max_cycle;Signal;HPM_P1;HPM_P2
2022/07/22 00:01:35;;;;;;;4.35;3.75;;;21.30;92.40;;;;;;5098428;28;20063;-70
2022/07/22 00:04:02;;;;;;;6.05;3.70;;;21.30;92.50;;;;;;5098425;28;20518;-70
2022/07/22 00:06:28;;;;;;;7.70;3.25;;;21.20;92.70;;;;;;5098257;28;20051;-70
2022/07/22 00:08:54;;;;;;;6.18;3.55;;;;;;;;;;5098273;28;20040;-70
2022/07/22 00:11:20;;;;;;;4.68;3.42;;;20.80;93.10;;;;;;5098163;28;20085;-70
2022/07/22 00:13:46;;;;;;;5.47;3.85;;;20.80;93.30;;;;;;5098569;28;20048;-70
2022/07/22 00:16:12;;;;;;;6.90;3.63;;;20.70;93.50;;;;;;5098143;28;20506;-70
2022/07/22 00:18:38;;;;;;;7.05;3.75;;;20.80;93.50;;;;;;5078111;28;20055;-70
2022/07/22 00:21:04;;;;;;;4.72;3.40;;;20.80;93.40;;;;;;5095128;28;20483;-70
2022/07/22 00:23:30;;;;;;;4.90;3.25;;;20.90;93.40;;;;;;5095123;28;20456;-70
2022/07/22 00:25:55;;;;;;;8.57;3.42;;;20.80;93.40;;;;;;5076815;28;20076;-70
2022/07/22 00:28:21;;;;;;;7.93;3.83;;;20.80;93.40;;;;;;5095064;28;20036;-70
2022/07/22 00:30:47;;;;;;;5.57;3.30;;;20.80;93.50;;;;;;5076866;28;20078;-70
2022/07/22 00:33:13;;;;;;;4.45;3.28;;;20.80;93.50;;;;;;5094861;28;20032;-70
2022/07/22 00:35:38;;;;;;;5.82;3.78;;;20.70;93.60;;;;;;5094576;28;20039;-70
2022/07/22 00:38:04;;;;;;;4.70;3.42;;;20.70;93.80;;;;;;5094548;28;20040;-70
2022/07/22 00:40:30;;;;;;;3.55;3.20;;;20.60;93.80;;;;;;5076326;28;20039;-70
2022/07/22 00:42:56;;;;;;;3.78;3.00;;;20.60;93.80;;;;;;5094610;28;20048;-69
2022/07/22 00:45:21;;;;;;;4.97;3.25;;;20.70;93.70;;;;;;5094458;28;20040;-70
2022/07/22 00:47:47;;;;;;;4.57;3.10;;;20.70;93.70;;;;;;5094711;28;20044;-70
2022/07/22 00:50:14;;;;;;;8.15;4.38;;;20.60;93.60;;;;;;5076638;28;20031;-70
2022/07/22 00:52:41;;;;;;;4.80;3.20;;;20.70;93.70;;;;;;5094656;28;20104;-70
2022/07/22 00:55:07;;;;;;;5.35;3.00;;;20.60;93.90;;;;;;5094311;28;20028;-70
2022/07/22 00:57:34;;;;;;;6.40;3.00;;;20.60;93.90;;;;;;5110196;28;20051;-70
2022/07/22 01:00:00;;;;;;;5.97;3.45;;;20.60;93.90;;;;;;5094271;28;20051;-70
2022/07/22 01:02:26;;;;;;;5.25;3.60;;;20.60;93.80;;;;;;5076207;28;20130;-70
2022/07/22 01:04:52;;;;;;;4.63;3.17;;;20.60;93.80;;;;;;5093849;28;20123;-70
2022/07/22 01:07:18;;;;;;;5.28;3.13;;;20.60;93.70;;;;;;5094009;28;20051;-70
2022/07/22 01:09:45;;;;;;;5.07;3.45;;;20.70;93.70;;;;;;5075933;28;20543;-70
2022/07/22 01:12:11;;;;;;;4.43;2.72;;;20.70;93.50;;;;;;5109683;28;20054;-70
2022/07/22 01:14:37;;;;;;;3.97;2.75;;;20.80;93.50;;;;;;5109684;28;20406;-70
2022/07/22 01:17:03;;;;;;;5.85;3.17;;;20.60;93.70;;;;;;5075895;28;20050;-70
2022/07/22 01:19:29;;;;;;;6.93;3.80;;;20.60;93.70;;;;;;5093918;28;20044;-70
2022/07/22 01:21:55;;;;;;;5.63;3.90;;;20.50;93.80;;;;;;5093780;28;20047;-70
2022/07/22 01:24:20;;;;;;;6.03;3.20;;;20.50;93.80;;;;;;5093852;28;20089;-70
2022/07/22 01:26:46;;;;;;;4.03;3.15;;;20.40;94.10;;;;;;5075547;28;20139;-70
2022/07/22 01:29:12;;;;;;;5.00;3.28;;;20.30;94.30;;;;;;5093797;28;20039;-69
2022/07/22 01:31:38;;;;;;;4.80;3.15;;;20.30;94.40;;;;;;5092614;28;20055;-70
2022/07/22 01:34:04;;;;;;;4.43;3.00;;;20.30;94.30;;;;;;5093871;28;20048;-71
2022/07/22 01:36:29;;;;;;;5.28;3.20;;;20.40;94.10;;;;;;5093697;28;20039;-70
2022/07/22 01:38:55;;;;;;;5.32;3.45;;;20.50;93.90;;;;;;5093591;28;20074;-70
2022/07/22 01:41:21;;;;;;;7.55;3.47;;;20.40;94.00;;;;;;5075439;28;20109;-70
2022/07/22 01:43:47;;;;;;;4.85;3.35;;;20.40;94.20;;;;;;5093524;28;20128;-70
2022/07/22 01:46:13;;;;;;;7.95;3.35;;;20.30;94.40;;;;;;5093493;28;20507;-70
2022/07/22 01:48:39;;;;;;;5.20;3.38;;;20.10;94.60;;;;;;5093228;28;20032;-69
2022/07/22 01:51:05;;;;;;;6.32;3.15;;;20.10;94.40;;;;;;5074979;28;20089;-70
2022/07/22 01:53:31;;;;;;;5.35;3.88;;;20.10;94.30;;;;;;5093079;28;20044;-70
2022/07/22 01:55:57;;;;;;;4.22;3.10;;;20.00;94.20;;;;;;5093076;28;20046;-69
2022/07/22 01:58:22;;;;;;;5.00;3.35;;;20.00;94.00;;;;;;5092980;28;20040;-70
2022/07/22 02:00:48;;;;;;;4.88;2.72;;;20.00;93.90;;;;;;5075022;28;20040;-70
2022/07/22 02:03:14;;;;;;;4.32;3.05;;;20.10;93.70;;;;;;5093368;28;20036;-70
2022/07/22 02:05:40;;;;;;;4.78;3.05;;;20.30;93.30;;;;;;5109133;28;20056;-70
2022/07/22 02:08:09;;;;;;;5.00;3.10;;;20.30;93.30;;;;;;5093803;28;20449;-69
2022/07/22 02:10:35;;;;;;;5.88;3.03;;;20.20;93.20;;;;;;5113170;28;20044;-69
2022/07/22 02:13:02;;;;;;;5.03;3.38;;;20.30;93.00;;;;;;5113074;28;20039;-69
2022/07/22 02:15:28;;;;;;;6.40;3.50;;;20.30;93.00;;;;;;5113113;28;20067;-69
2022/07/22 02:17:54;;;;;;;6.10;3.80;;;20.30;93.30;;;;;;5094884;28;20529;-70
2022/07/22 02:20:21;;;;;;;6.82;3.28;;;20.40;93.00;;;;;;5112889;28;20036;-69
2022/07/22 02:22:47;;;;;;;4.43;2.78;;;20.50;92.90;;;;;;5113013;28;20048;-70
2022/07/22 02:25:13;;;;;;;5.35;3.25;;;20.50;92.80;;;;;;5113069;28;20063;-70
2022/07/22 02:27:40;;;;;;;10.38;3.58;;;20.50;92.80;;;;;;5113381;28;20075;-70
2022/07/22 02:30:08;;;;;;;3.50;2.55;;;20.50;92.60;;;;;;5113096;28;20039;-70
2022/07/22 02:32:34;;;;;;;5.55;2.83;;;20.30;93.30;;;;;;5094806;28;20402;-70
2022/07/22 02:34:59;;;;;;;3.55;3.10;;;20.00;93.90;;;;;;5112989;28;20039;-69
2022/07/22 02:37:25;;;;;;;6.57;2.78;;;19.70;94.30;;;;;;5113049;28;20088;-70
2022/07/22 02:39:51;;;;;;;6.78;3.30;;;19.50;94.80;;;;;;5112847;28;20048;-69
2022/07/22 02:42:17;;;;;;;5.53;3.30;;;19.20;95.20;;;;;;5112589;28;20512;-69
2022/07/22 02:44:42;;;;;;;5.03;2.90;;;19.40;94.80;;;;;;5112928;28;20046;-69
2022/07/22 02:47:08;;;;;;;3.95;3.05;;;19.60;94.30;;;;;;5112878;28;20089;-69
2022/07/22 02:49:46;;;;;;;4.28;3.03;;;19.70;94.20;;;;;;5112857;28;20047;-69
2022/07/22 02:52:12;;;;;;;4.97;3.33;;;19.80;94.00;;;;;;5112613;28;20043;-70
2022/07/22 02:54:38;;;;;;;3.88;2.88;;;19.90;93.70;;;;;;5112605;28;20411;-69
2022/07/22 02:57:03;;;;;;;3.40;2.85;;;20.00;93.90;;;;;;5112495;28;20048;-69
2022/07/22 02:59:29;;;;;;;4.75;3.45;;;19.90;94.00;;;;;;5112487;28;20050;-69
2022/07/22 03:01:55;;;;;;;6.38;3.10;;;19.90;94.00;;;;;;5111887;28;20042;-69
2022/07/22 03:04:21;;;;;;;6.53;3.65;;;20.00;94.00;;;;;;5112527;28;20043;-69
2022/07/22 03:06:46;;;;;;;7.13;3.88;;;20.00;93.80;;;;;;5112551;28;20154;-69
2022/07/22 03:09:12;;;;;;;7.05;2.78;;;20.10;93.60;;;;;;5094071;28;20058;-69
2022/07/22 03:11:38;;;;;;;4.00;2.85;;;19.90;94.20;;;;;;5094013;28;20120;-69
2022/07/22 03:14:03;;;;;;;7.15;3.28;;;19.90;94.40;;;;;;5111294;28;20043;-69
2022/07/22 03:16:29;;;;;;;6.20;3.17;;;19.80;94.60;;;;;;5091175;28;20039;-70
2022/07/22 03:18:55;;;;;;;4.85;3.30;;;19.90;94.50;;;;;;5109993;28;20039;-70
2022/07/22 03:21:21;;;;;;;5.63;2.97;;;20.00;94.60;;;;;;5111268;28;20048;-69
2022/07/22 03:23:47;;;;;;;3.78;2.75;;;20.10;94.60;;;;;;5112175;28;20106;-69
2022/07/22 03:26:12;;;;;;;4.30;3.10;;;20.10;94.50;;;;;;5112510;28;20055;-69
2022/07/22 03:28:38;;;;;;;9.60;3.38;;;20.10;94.70;;;;;;5112302;28;20034;-69
2022/07/22 03:31:04;;;;;;;5.07;3.15;;;19.90;94.50;;;;;;5109119;28;20088;-69
2022/07/22 03:33:30;;;;;;;5.15;3.28;;;20.00;94.70;;;;;;5086086;28;20044;-70
2022/07/22 03:35:55;;;;;;;4.68;3.08;;;19.90;95.00;;;;;;5091742;28;20036;-70
2022/07/22 03:38:21;;;;;;;4.60;3.30;;;20.00;95.00;;;;;;5094079;28;20042;-69
2022/07/22 03:40:47;;;;;;;4.65;3.28;;;19.90;94.70;;;;;;5093946;28;20042;-69
2022/07/22 03:43:13;;;;;;;4.82;2.83;;;19.90;94.50;;;;;;5112362;28;20380;-70
2022/07/22 03:45:38;;;;;;;4.75;3.50;;;19.70;94.90;;;;;;5093833;28;20387;-69
2022/07/22 03:48:05;;;;;;;5.05;2.95;;;19.80;94.40;;;;;;5112161;28;20074;-70
2022/07/22 03:50:30;;;;;;;5.50;3.33;;;19.90;94.20;;;;;;5111987;28;20066;-69
2022/07/22 03:52:56;;;;;;;5.18;3.25;;;19.80;94.10;;;;;;5111955;28;20049;-69
2022/07/22 03:55:22;;;;;;;4.03;3.05;;;19.80;94.10;;;;;;5097007;28;20032;-70
2022/07/22 03:57:47;;;;;;;7.30;3.10;;;19.70;93.90;;;;;;5115935;28;20216;-69
2022/07/22 04:00:13;;;;;;;3.22;2.53;;;19.70;94.10;;;;;;5116033;28;20536;-70
2022/07/22 04:02:39;;;;;;;8.60;3.03;;;19.50;93.90;;;;;;5116080;28;20075;-69
2022/07/22 04:05:05;;;;;;;4.10;2.70;;;19.60;93.70;;;;;;5115674;28;20067;-69
2022/07/22 04:07:31;;;;;;;5.32;3.45;;;19.60;93.70;;;;;;5115497;28;20044;-69
2022/07/22 04:10:04;;;;;;;4.00;2.80;;;19.70;93.70;;;;;;5115253;28;20100;-69
2022/07/22 04:12:35;;;;;;;6.13;2.90;;;19.70;93.40;;;;;;5097070;28;20126;-69
2022/07/22 04:15:01;;;;;;;4.53;2.70;;;19.80;93.40;;;;;;5116200;28;20051;-69
2022/07/22 04:17:27;;;;;;;5.10;2.97;;;19.70;94.20;;;;;;5115619;28;20047;-70
2022/07/22 04:19:53;;;;;;;4.15;2.95;;;19.50;94.50;;;;;;5097154;28;20031;-70
2022/07/22 04:22:19;;;;;;;7.70;3.20;;;19.30;94.80;;;;;;5115493;28;20047;-70
2022/07/22 04:24:44;;;;;;;4.82;3.30;;;19.20;95.00;;;;;;5096826;28;20082;-69
2022/07/22 04:27:10;;;;;;;5.82;3.03;;;19.20;94.80;;;;;;5115148;28;20104;-70
2022/07/22 04:29:36;;;;;;;7.22;3.30;;;19.20;95.00;;;;;;5097000;28;20043;-69
2022/07/22 04:32:02;;;;;;;3.97;3.00;;;19.20;95.10;;;;;;5115390;28;20028;-69
2022/07/22 04:34:27;;;;;;;8.90;2.95;;;19.20;95.10;;;;;;5115188;28;20040;-69
2022/07/22 04:36:53;;;;;;;10.43;3.17;;;19.20;95.40;;;;;;5097104;28;20040;-69
2022/07/22 04:39:19;;;;;;;5.85;3.88;;;19.30;95.30;;;;;;5115328;28;20070;-69
2022/07/22 04:41:44;;;;;;;7.60;3.40;;;19.40;94.80;;;;;;5115283;28;20190;-69
2022/07/22 04:44:10;;;;;;;5.20;3.00;;;19.40;95.40;;;;;;5115025;28;20067;-70
2022/07/22 04:46:36;;;;;;;4.55;3.25;;;19.30;95.80;;;;;;5096397;28;20047;-69
2022/07/22 04:49:02;;;;;;;3.92;2.60;;;19.40;95.20;;;;;;5114928;28;20050;-69
2022/07/22 04:51:27;;;;;;;5.20;3.00;;;19.30;95.20;;;;;;5115001;28;20039;-69
2022/07/22 04:53:54;;;;;;;5.20;3.10;;;19.30;95.40;;;;;;5114927;28;20039;-70
2022/07/22 04:56:20;;;;;;;3.88;2.75;;;19.20;95.50;;;;;;5114688;28;20108;-69
2022/07/22 04:58:46;;;;;;;3.67;2.67;;;19.20;95.50;;;;;;5114544;28;20367;-69
2022/07/22 05:01:12;;;;;;;5.13;2.88;;;19.30;95.30;;;;;;5114855;28;20027;-69
2022/07/22 05:03:39;;;;;;;4.72;2.90;;;19.50;95.20;;;;;;5096144;28;20043;-69
2022/07/22 05:06:05;;;;;;;5.25;2.90;;;19.60;95.00;;;;;;5114154;28;20047;-69
2022/07/22 05:08:30;;;;;;;4.97;3.30;;;19.70;94.90;;;;;;5114313;28;20496;-69
2022/07/22 05:10:56;;;;;;;3.47;3.08;;;19.80;94.80;;;;;;5114405;28;20067;-68
2022/07/22 05:13:22;;;;;;;5.28;3.40;;;19.90;94.50;;;;;;5113768;28;20084;-69
2022/07/22 05:15:49;;;;;;;4.75;3.28;;;20.00;94.70;;;;;;5114444;28;20039;-69
2022/07/22 05:18:15;;;;;;;4.65;3.05;;;20.10;95.00;;;;;;5114435;28;20566;-69
2022/07/22 05:20:41;;;;;;;4.65;3.05;;;20.20;94.60;;;;;;5114665;28;20035;-69
2022/07/22 05:23:07;;;;;;;5.50;3.30;;;20.20;94.80;;;;;;5102064;28;20562;-69
2022/07/22 05:25:32;;;;;;;7.07;3.30;;;20.30;94.90;;;;;;5114137;28;20047;-68
2022/07/22 05:27:58;;;;;;;4.68;3.40;;;20.40;94.80;;;;;;5114315;28;20035;-69
2022/07/22 05:30:24;;;;;;;8.48;3.45;;;20.50;94.70;;;;;;5114185;28;20081;-68
2022/07/22 05:32:50;;;;;;;4.75;3.03;;;20.60;94.80;;;;;;5095785;28;20035;-69
2022/07/22 05:35:16;;;;;;;5.22;3.05;;;20.00;95.70;;;;;;5095737;28;20052;-69
2022/07/22 05:37:41;;;;;;;6.07;3.05;;;20.10;96.00;;;;;;5114348;28;20180;-69
2022/07/22 05:40:08;;;;;;;5.60;3.10;;;20.20;96.30;;;;;;5114010;28;20513;-68
2022/07/22 05:42:33;;;;;;;5.65;3.20;;;20.20;96.40;;;;;;5113995;28;20062;-68
2022/07/22 05:44:59;;;;;;;5.10;2.90;;;20.20;96.90;;;;;;5113795;28;20043;-68
2022/07/22 05:47:25;;;;;;;5.82;3.10;;;21.00;97.20;;;;;;5113793;28;20050;-69
2022/07/22 05:49:51;;;;;;;7.07;3.00;;;21.60;95.60;;;;;;5113607;28;20539;-68
2022/07/22 05:52:16;;;;;;;4.18;2.85;;;22.00;95.30;;;;;;5113564;28;20035;-69
2022/07/22 05:54:42;;;;;;;4.97;2.92;;;21.50;95.80;;;;;;5113669;28;20046;-69
2022/07/22 05:57:09;;;;;;;5.68;3.42;;;21.40;96.20;;;;;;5113591;28;20035;-69
2022/07/22 05:59:36;;;;;;;5.10;3.28;;;22.00;96.40;;;;;;5113686;28;20126;-69
2022/07/22 06:02:02;;;;;;;7.90;3.42;;;22.50;95.50;;;;;;5113632;28;20127;-69
2022/07/22 06:04:28;;;;;;;4.20;2.75;;;22.80;95.40;;;;;;5113280;28;20063;-69
2022/07/22 06:06:54;;;;;;;6.07;3.28;;;23.00;94.60;;;;;;5113248;28;20111;-68
2022/07/22 06:09:20;;;;;;;5.68;3.05;;;23.10;94.30;;;;;;5113135;28;20100;-69
2022/07/22 06:11:46;;;;;;;7.95;3.65;;;23.10;94.80;;;;;;5113272;28;20050;-69
2022/07/22 06:14:12;;;;;;;4.65;3.20;;;23.10;93.20;;;;;;5113140;28;20420;-69
2022/07/22 06:16:37;;;;;;;7.00;3.60;;;23.30;94.40;;;;;;5112600;28;20092;-69
2022/07/22 06:19:03;;;;;;;4.30;3.50;;;23.30;94.10;;;;;;5113284;28;20035;-69
2022/07/22 06:21:29;;;;;;;3.72;2.95;;;23.40;95.20;;;;;;5113098;28;20039;-69
2022/07/22 06:23:55;;;;;;;3.50;3.08;;;23.60;94.50;;;;;;5113268;28;20424;-69
2022/07/22 06:26:21;;;;;;;5.55;3.05;;;23.80;93.50;;;;;;5112993;28;20043;-69
2022/07/22 06:28:47;;;;;;;4.72;3.33;;;24.00;92.60;;;;;;5094731;28;20028;-69
2022/07/22 06:31:12;;;;;;;5.22;3.67;;;24.00;91.50;;;;;;5094729;28;20036;-69
2022/07/22 06:33:38;;;;;;;4.07;3.00;;;24.10;91.90;;;;;;5095155;28;20046;-69
2022/07/22 06:36:04;;;;;;;6.10;3.00;;;24.50;91.40;;;;;;5094823;28;20470;-69
2022/07/22 06:38:30;;;;;;;4.57;3.22;;;24.60;88.60;;;;;;5113059;28;20043;-69
2022/07/22 06:40:56;;;;;;;6.57;3.47;;;24.80;90.40;;;;;;5112892;28;20070;-70
2022/07/22 06:43:22;;;;;;;4.53;2.97;;;24.80;89.70;;;;;;5112846;28;20035;-69
2022/07/22 06:45:48;;;;;;;5.07;3.55;;;25.10;89.60;;;;;;5112522;28;20601;-69
2022/07/22 06:48:14;;;;;;;6.30;3.17;;;25.00;90.70;;;;;;5112678;28;20039;-69
2022/07/22 06:50:40;;;;;;;5.32;3.40;;;24.70;89.00;;;;;;5112546;28;20088;-69
2022/07/22 06:53:06;;;;;;;6.45;3.25;;;24.60;89.60;;;;;;5112551;28;20132;-69
2022/07/22 06:55:32;;;;;;;5.68;3.30;;;25.20;90.10;;;;;;5112775;28;20039;-69
2022/07/22 06:57:58;;;;;;;6.13;3.60;;;25.60;90.10;;;;;;5112606;28;20039;-69
2022/07/22 07:00:24;;;;;;;7.75;3.53;;;25.60;89.30;;;;;;5112617;28;20051;-69
2022/07/22 07:02:50;;;;;;;4.78;3.47;;;25.60;90.70;;;;;;5112604;28;20036;-69
2022/07/22 07:05:15;;;;;;;4.63;3.33;;;25.80;88.10;;;;;;5112547;28;20401;-69
2022/07/22 07:07:41;;;;;;;5.13;3.22;;;25.90;87.90;;;;;;5112696;28;20043;-69
2022/07/22 07:10:09;;;;;;;6.07;3.30;;;26.00;87.40;;;;;;5112763;28;20074;-69
2022/07/22 07:12:35;;;;;;;5.38;3.22;;;26.30;88.60;;;;;;5112802;28;20051;-69
2022/07/22 07:15:01;;;;;;;5.55;3.55;;;26.60;88.60;;;;;;5112612;28;20491;-69
2022/07/22 07:17:27;;;;;;;6.80;3.25;;;26.70;88.20;;;;;;5112091;28;20035;-70
2022/07/22 07:19:53;;;;;;;5.60;2.90;;;26.70;88.80;;;;;;5093929;28;20039;-69
2022/07/22 07:22:18;;;;;;;4.43;3.00;;;27.00;88.40;;;;;;5111855;28;20039;-69
2022/07/22 07:24:44;;;;;;;8.55;3.35;;;27.10;88.30;;;;;;5112290;28;20043;-69
2022/07/22 07:27:10;;;;;;;7.25;3.72;;;26.90;88.50;;;;;;5112451;28;20044;-69
2022/07/22 07:29:36;;;;;;;5.10;3.47;;;27.00;89.00;;;;;;5116490;28;20409;-69
2022/07/22 07:32:01;;;;;;;4.60;3.40;;;26.60;87.20;;;;;;5116674;28;20042;-70
2022/07/22 07:34:27;;;;;;;3.42;2.90;;;26.60;87.40;;;;;;5113691;28;20042;-69
2022/07/22 07:36:54;;;;;;;6.55;3.90;;;26.80;88.20;;;;;;5099443;28;20125;-70
2022/07/22 07:39:20;;;;;;;8.50;4.47;;;27.00;87.80;;;;;;5095461;28;20055;-69
2022/07/22 07:41:46;;;;;;;4.53;3.42;;;27.10;86.70;;;;;;5077564;28;20040;-69
2022/07/22 07:44:12;;;;;;;4.20;3.45;;;27.00;86.60;;;;;;5077868;28;20048;-69
2022/07/22 07:46:37;;;;;;;7.85;4.10;;;26.80;87.40;;;;;;5077664;28;20055;-70
2022/07/22 07:49:03;;;;;;;5.38;3.40;;;27.10;86.30;;;;;;5096046;28;20036;-70
2022/07/22 07:51:29;;;;;;;6.47;3.72;;;26.70;86.30;;;;;;5095799;28;20040;-70
2022/07/22 07:53:55;;;;;;;6.82;3.25;;;26.80;87.50;;;;;;5095581;28;20383;-70
2022/07/22 07:56:21;;;;;;;5.82;3.50;;;27.10;86.00;;;;;;5111000;28;20036;-70
2022/07/22 07:58:46;;;;;;;6.97;3.67;;;27.20;86.30;;;;;;5095313;28;20105;-70
2022/07/22 08:01:12;;;;;;;4.35;3.10;;;27.40;85.90;;;;;;5095356;28;20036;-70
2022/07/22 08:03:38;;;;;;;7.68;4.40;;;27.70;85.90;;;;;;5095486;28;20102;-70
2022/07/22 08:06:04;;;;;;;6.22;3.65;;;27.80;84.80;;;;;;5095671;28;20048;-70
2022/07/22 08:08:29;;;;;;;4.15;3.45;;;27.60;84.90;;;;;;5095353;28;20460;-70
2022/07/22 08:10:55;;;;;;;5.25;3.33;;;27.80;84.70;;;;;;5095487;28;20039;-70
2022/07/22 08:13:21;;;;;;;6.35;3.35;;;28.40;84.90;;;;;;5077109;28;20093;-70
2022/07/22 08:15:47;;;;;;;4.78;3.42;;;28.30;83.00;;;;;;5095104;28;20056;-70
2022/07/22 08:18:13;;;;;;;4.75;3.08;;;28.40;82.00;;;;;;5077110;28;20402;-70
2022/07/22 08:20:39;;;;;;;6.00;3.53;;;28.40;82.50;;;;;;5095332;28;20136;-69
2022/07/22 08:23:04;;;;;;;4.72;3.38;;;28.30;80.70;;;;;;5095255;28;20043;-70
2022/07/22 08:25:31;;;;;;;5.20;3.38;;;28.30;80.20;;;;;;5106035;28;20575;-70
2022/07/22 08:27:58;;;;;;;4.80;3.50;;;28.30;80.70;;;;;;5096143;28;20134;-68
2022/07/22 08:30:26;;;;;;;6.65;3.28;;;28.40;81.20;;;;;;5094832;28;20094;-68
2022/07/22 08:32:53;;;;;;;6.57;3.45;;;28.50;79.90;;;;;;5094900;28;20051;-68
2022/07/22 08:35:19;;;;;;;4.50;3.53;;;28.80;80.90;;;;;;5110459;28;20043;-68
2022/07/22 08:37:47;;;;;;;6.22;3.05;;;28.90;80.90;;;;;;5094731;28;20092;-67
2022/07/22 08:40:13;;;;;;;4.55;3.03;;;29.10;79.40;;;;;;5093767;28;20054;-68
2022/07/22 08:42:40;;;;;;;3.95;2.83;;;29.30;81.30;;;;;;5076326;28;20028;-68
2022/07/22 08:45:07;;;;;;;6.85;3.28;;;29.20;78.40;;;;;;5110266;28;20048;-68
2022/07/22 08:47:33;;;;;;;5.57;2.88;;;29.70;79.60;;;;;;5094655;28;20047;-68
2022/07/22 08:50:00;;;;;;;6.00;2.95;;;29.50;78.00;;;;;;5110253;28;20036;-68
2022/07/22 08:52:26;;;;;;;4.43;2.97;;;29.70;79.00;;;;;;5094748;28;20068;-68
2022/07/22 08:54:51;;;;;;;7.95;3.53;;;30.00;85.40;;;;;;5094304;28;20067;-68
2022/07/22 08:57:18;;;;;;;3.78;2.92;;;29.70;83.70;;;;;;5094261;28;20078;-68
2022/07/22 08:59:59;;;;;;;4.65;2.97;;;29.80;84.60;;;;;;5094207;28;20052;-67
2022/07/22 09:02:25;;;;;;;5.15;3.28;;;29.90;84.20;;;;;;5076401;28;20406;-67
2022/07/22 09:04:58;;;;;;;4.85;2.60;;;29.90;83.20;;;;;;5094344;28;20100;-67
2022/07/22 09:07:34;;;;;;;4.20;2.97;;;30.00;75.80;;;;;;5094260;28;20771;-67
2022/07/22 09:10:00;;;;;;;4.57;3.35;;;29.60;75.90;;;;;;5105130;28;20035;-67
2022/07/22 09:12:31;;;;;;;4.18;2.95;;;30.00;76.40;;;;;;5114350;28;20043;-67
2022/07/22 09:14:58;;;;;;;3.95;3.03;;;29.80;76.10;;;;;;5114136;28;20040;-68
2022/07/22 09:17:38;;;;;;;5.22;3.53;;;29.80;75.30;;;;;;5114525;28;20077;-67
2022/07/22 09:20:17;;;;;;;3.78;2.85;;;29.50;75.90;;;;;;5114471;28;20037;-67
2022/07/22 09:22:48;;;;;;;6.80;3.28;;;29.80;75.70;;;;;;5095973;28;20460;-66
2022/07/22 09:25:22;;;;;;;10.10;4.00;;;30.00;75.60;;;;;;5114063;28;20043;-67
2022/07/22 09:27:48;;;;;;;7.55;3.75;;;29.80;75.80;;;;;;5095816;28;20071;-68
2022/07/22 09:30:20;;;;;;;5.60;3.25;;;29.30;76.30;;;;;;5114079;28;20047;-68
2022/07/22 09:32:46;;;;;;;5.95;3.75;;;29.70;77.00;;;;;;5114205;28;20081;-68
2022/07/22 09:35:13;;;;;;;3.67;3.13;;;29.50;76.30;;;;;;5095806;28;20036;-68
2022/07/22 09:37:50;;;;;;;4.53;3.28;;;29.50;76.60;;;;;;5114133;28;20166;-68
2022/07/22 09:40:22;;;;;;;8.00;3.88;;;29.80;76.50;;;;;;5114504;28;20039;-67
2022/07/22 09:42:57;;;;;;;4.03;3.42;;;30.30;76.70;;;;;;5114721;28;20046;-68
2022/07/22 09:45:26;;;;;;;6.60;3.72;;;29.60;75.30;;;;;;5096362;28;20057;-67
2022/07/22 09:47:55;;;;;;;3.85;2.80;;;30.00;75.20;;;;;;5114695;28;20406;-68
2022/07/22 09:50:31;;;;;;;5.55;3.03;;;30.40;76.40;;;;;;5114795;28;20084;-68
2022/07/22 09:52:59;;;;;;;4.47;3.35;;;31.00;76.30;;;;;;5113868;28;20119;-68
2022/07/22 09:55:27;;;;;;;4.85;3.72;;;30.60;73.50;;;;;;5096393;28;20044;-68
2022/07/22 09:57:55;;;;;;;5.63;3.08;;;30.60;73.90;;;;;;5114726;28;20066;-68
2022/07/22 10:00:23;;;;;;;7.30;3.92;;;30.70;74.90;;;;;;5114167;28;20573;-69
2022/07/22 10:03:00;;;;;;;5.20;3.78;;;30.90;74.90;;;;;;5114223;28;20031;-68
2022/07/22 10:05:29;;;;;;;5.38;3.35;;;31.10;73.70;;;;;;5114306;28;20048;-69
2022/07/22 10:07:56;;;;;;;4.93;3.50;;;30.80;73.80;;;;;;5096274;28;20490;-68
2022/07/22 10:10:25;;;;;;;5.82;3.70;;;30.90;75.20;;;;;;5114028;28;20043;-68
2022/07/22 10:12:53;;;;;;;7.00;4.55;;;31.00;75.10;;;;;;5094711;28;20047;-68
2022/07/22 10:15:20;;;;;;;5.35;3.33;;;31.00;73.60;;;;;;5110968;28;20058;-68
2022/07/22 10:17:49;;;;;;;3.90;2.97;;;30.70;73.20;;;;;;5112597;28;20051;-68
2022/07/22 10:20:18;;;;;;;5.28;3.47;;;30.90;74.10;;;;;;5112155;27;20052;-72
2022/07/22 10:23:06;;;;;;;9.47;3.87;;;31.30;74.70;;;;;;5105943;28;20519;-69
2022/07/22 10:25:52;;;;;;;5.88;3.75;;;31.50;73.60;;;;;;5090595;28;20100;-70
2022/07/22 10:28:24;;;;;;;7.15;3.75;;;31.50;72.50;;;;;;5109543;28;20063;-70
2022/07/22 10:30:50;;;;;;;6.70;3.50;;;31.50;72.40;;;;;;5105663;28;20142;-69
2022/07/22 10:33:19;;;;;;;5.00;4.03;;;31.20;72.90;;;;;;5104153;28;20542;-69
2022/07/22 10:36:01;;;;;;;6.63;4.00;;;31.30;73.70;;;;;;5086871;28;20062;-69
2022/07/22 10:38:28;;;;;;;4.30;3.70;;;31.30;72.70;;;;;;5107711;28;20057;-68
2022/07/22 10:41:00;;;;;;;5.57;3.88;;;31.30;73.20;;;;;;5090112;28;20112;-69
2022/07/22 10:43:42;;;;;;;3.88;3.45;;;31.50;73.50;;;;;;5109213;28;20040;-69
2022/07/22 10:46:08;;;;;;;6.47;3.83;;;31.70;71.30;;;;;;5107459;28;20059;-67
2022/07/22 10:48:36;;;;;;;6.13;4.22;;;31.60;73.30;;;;;;5110221;28;20035;-67
2022/07/22 10:51:14;;;;;;;6.70;3.90;;;31.70;71.50;;;;;;5109969;28;20047;-70
2022/07/22 10:53:40;;;;;;;9.05;3.97;;;30.90;71.60;;;;;;5110910;28;20071;-70
2022/07/22 10:56:27;;;;;;;5.70;3.83;;;30.70;71.80;;;;;;5092530;28;20533;-70
2022/07/22 10:58:55;;;;;;;5.28;3.85;;;30.70;72.20;;;;;;5107396;28;20490;-70
2022/07/22 11:01:27;;;;;;;4.15;3.45;;;31.50;71.50;;;;;;5110432;28;20402;-70
2022/07/22 11:03:53;;;;;;;5.97;3.88;;;31.80;72.00;;;;;;5109403;28;20072;-70
2022/07/22 11:06:21;;;;;;;5.43;3.70;;;31.10;71.80;;;;;;5090013;28;20059;-70
2022/07/22 11:08:51;;;;;;;7.72;4.30;;;31.00;72.00;;;;;;5109501;28;20031;-70
2022/07/22 11:11:17;;;;;;;7.80;4.20;;;31.40;72.10;;;;;;5110931;28;20051;-70
2022/07/22 11:13:44;;;;;;;5.70;4.20;;;31.20;71.20;;;;;;5107908;28;20531;-70
2022/07/22 11:16:18;;;;;;;6.75;4.38;;;31.10;72.10;;;;;;5081053;28;20035;-70
2022/07/22 11:18:48;;;;;;;5.35;3.65;;;31.50;71.50;;;;;;5110155;28;20118;-70
2022/07/22 11:21:16;;;;;;;5.68;3.63;;;31.90;71.70;;;;;;5109522;28;20043;-70
2022/07/22 11:23:43;;;;;;;4.13;3.40;;;32.00;71.50;;;;;;5111177;28;20039;-70
2022/07/22 11:26:11;;;;;;;4.50;3.42;;;;;;;;;;5092078;28;20052;-70
2022/07/22 11:28:44;;;;;;;5.57;3.80;;;32.50;74.30;;;;;;5092452;28;20051;-70
2022/07/22 11:31:16;;;;;;;6.57;4.28;;;32.30;72.60;;;;;;5073883;28;20054;-70
2022/07/22 11:33:43;;;;;;;8.68;3.55;;;32.60;70.20;;;;;;5091302;28;20391;-70
2022/07/22 11:36:12;;;;;;;8.27;4.32;;;32.80;72.20;;;;;;5091162;28;20372;-70
2022/07/22 11:38:49;;;;;;;5.10;3.90;;;32.80;72.70;;;;;;5105824;28;20058;-71
2022/07/22 11:41:18;;;;;;;4.05;3.25;;;32.80;70.90;;;;;;5090178;28;20082;-71
2022/07/22 11:43:50;;;;;;;6.18;3.78;;;32.40;71.50;;;;;;5090073;28;20127;-71
2022/07/22 11:46:17;;;;;;;5.85;4.07;;;32.90;72.10;;;;;;5088321;28;20055;-71
2022/07/22 11:48:44;;;;;;;4.93;3.60;;;32.90;70.30;;;;;;5089885;28;20043;-71
2022/07/22 11:51:12;;;;;;;5.05;3.83;;;33.00;71.20;;;;;;5089586;28;20040;-72
2022/07/22 11:53:40;;;;;;;5.63;3.97;;;33.20;69.20;;;;;;5090226;28;20073;-70
2022/07/22 11:56:07;;;;;;;7.90;4.15;;;33.50;69.40;;;;;;5089656;28;20075;-71
2022/07/22 11:58:39;;;;;;;5.85;3.83;;;33.20;68.00;;;;;;5090087;28;20541;-71
2022/07/22 12:01:08;;;;;;;8.68;4.03;;;33.40;69.40;;;;;;5073329;28;20093;-70
2022/07/22 12:03:39;;;;;;;6.68;3.75;;;33.30;68.90;;;;;;5090565;28;20045;-71
2022/07/22 12:06:09;;;;;;;4.38;3.35;;;33.40;70.50;;;;;;5090289;28;20063;-70
2022/07/22 12:08:40;;;;;;;10.23;3.85;;;33.40;68.20;;;;;;5090378;28;20437;-71
2022/07/22 12:11:06;;;;;;;5.65;3.88;;;33.20;68.00;;;;;;5090121;28;20183;-71
2022/07/22 12:13:32;;;;;;;4.95;3.42;;;33.20;68.10;;;;;;5090211;28;20044;-71
2022/07/22 12:15:58;;;;;;;5.75;3.97;;;33.10;68.50;;;;;;5092879;28;20384;-71
2022/07/22 12:18:26;;;;;;;8.50;3.97;;;33.60;68.50;;;;;;5094408;28;20044;-71
2022/07/22 12:20:54;;;;;;;5.80;4.22;;;33.60;69.30;;;;;;5098420;28;20039;-71
2022/07/22 12:23:26;;;;;;;7.40;4.38;;;33.30;67.80;;;;;;5095287;28;20036;-71
2022/07/22 12:25:57;;;;;;;4.85;3.90;;;32.90;67.50;;;;;;5114878;28;20053;-71
2022/07/22 12:28:23;;;;;;;8.32;4.45;;;32.90;68.40;;;;;;5096439;28;20081;-71
2022/07/22 12:30:51;;;;;;;12.77;4.25;;;33.10;68.50;;;;;;5114312;28;20126;-71
2022/07/22 12:33:19;;;;;;;6.70;4.38;;;33.10;68.90;;;;;;5113214;28;20509;-71
2022/07/22 12:36:02;;;;;;;9.70;4.05;;;33.30;68.20;;;;;;5094872;28;20058;-71
2022/07/22 12:38:28;;;;;;;7.53;4.30;;;32.90;67.80;;;;;;5094820;28;20050;-71
2022/07/22 12:40:54;;;;;;;6.55;4.35;;;33.40;68.10;;;;;;5113546;28;20043;-71
2022/07/22 12:43:25;;;;;;;5.18;4.13;;;33.50;68.20;;;;;;5113826;28;20109;-72
2022/07/22 12:45:51;;;;;;;7.40;4.75;;;33.20;67.10;;;;;;5113591;28;20509;-72
2022/07/22 12:48:17;;;;;;;12.07;4.40;;;33.10;68.20;;;;;;5112879;28;20518;-72